sensor_id;sensor_type;location;lat;lon;timestamp;P1;durP1;ratioP1;P2;durP2;ratioP2
57663;SDS011;43493;53.098;6.064;2024-02-21T00:00:48;25.67;;;4.50;;
57663;SDS011;43493;53.098;6.064;2024-02-21T00:03:13;23.50;;;4.57;;
57663;SDS011;43493;53.098;6.064;2024-02-21T00:05:39;26.30;;;4.67;;
57663;SDS011;43493;53.098;6.064;2024-02-21T00:08:05;25.67;;;4.43;;
57663;SDS011;43493;53.098;6.064;2024-02-21T00:10:30;23.40;;;4.87;;
57663;SDS011;43493;53.098;6.064;2024-02-21T00:13:00;22.77;;;3.93;;
57663;SDS011;43493;53.098;6.064;2024-02-21T00:15:26;26.80;;;5.33;;
57663;SDS011;43493;53.098;6.064;2024-02-21T00:17:51;23.43;;;5.07;;
57663;SDS011;43493;53.098;6.064;2024-02-21T00:20:17;23.47;;;5.13;;
57663;SDS011;43493;53.098;6.064;2024-02-21T00:22:43;25.70;;;5.07;;
57663;SDS011;43493;53.098;6.064;2024-02-21T00:25:09;28.93;;;4.50;;
57663;SDS011;43493;53.098;6.064;2024-02-21T00:27:35;31.17;;;5.13;;
57663;SDS011;43493;53.098;6.064;2024-02-21T00:30:01;29.23;;;5.47;;
57663;SDS011;43493;53.098;6.064;2024-02-21T00:32:28;29.17;;;5.83;;
57663;SDS011;43493;53.098;6.064;2024-02-21T00:34:53;30.50;;;5.57;;
57663;SDS011;43493;53.098;6.064;2024-02-21T00:37:19;28.90;;;6.17;;
57663;SDS011;43493;53.098;6.064;2024-02-21T00:39:45;27.47;;;5.67;;
57663;SDS011;43493;53.098;6.064;2024-02-21T00:42:10;29.03;;;5.10;;
57663;SDS011;43493;53.098;6.064;2024-02-21T00:44:36;32.60;;;6.67;;
57663;SDS011;43493;53.098;6.064;2024-02-21T00:47:02;32.87;;;5.43;;
57663;SDS011;43493;53.098;6.064;2024-02-21T00:49:27;37.07;;;6.37;;
57663;SDS011;43493;53.098;6.064;2024-02-21T00:51:53;32.37;;;6.17;;
57663;SDS011;43493;53.098;6.064;2024-02-21T00:54:19;28.07;;;6.53;;
57663;SDS011;43493;53.098;6.064;2024-02-21T00:56:45;37.83;;;7.13;;
57663;SDS011;43493;53.098;6.064;2024-02-21T00:59:10;30.60;;;5.97;;
57663;SDS011;43493;53.098;6.064;2024-02-21T01:01:36;29.57;;;6.33;;
57663;SDS011;43493;53.098;6.064;2024-02-21T01:04:02;34.57;;;6.63;;
57663;SDS011;43493;53.098;6.064;2024-02-21T01:06:27;39.20;;;7.90;;
57663;SDS011;43493;53.098;6.064;2024-02-21T01:08:53;40.10;;;7.60;;
57663;SDS011;43493;53.098;6.064;2024-02-21T01:11:19;34.07;;;6.93;;
57663;SDS011;43493;53.098;6.064;2024-02-21T01:13:44;33.77;;;7.07;;
57663;SDS011;43493;53.098;6.064;2024-02-21T01:16:10;34.57;;;7.93;;
57663;SDS011;43493;53.098;6.064;2024-02-21T01:18:38;38.23;;;7.90;;
57663;SDS011;43493;53.098;6.064;2024-02-21T01:21:04;40.57;;;9.27;;
57663;SDS011;43493;53.098;6.064;2024-02-21T01:23:36;41.80;;;8.87;;
57663;SDS011;43493;53.098;6.064;2024-02-21T01:26:02;36.23;;;8.60;;
57663;SDS011;43493;53.098;6.064;2024-02-21T01:28:29;37.53;;;8.60;;
57663;SDS011;43493;53.098;6.064;2024-02-21T01:30:56;31.23;;;8.23;;
57663;SDS011;43493;53.098;6.064;2024-02-21T01:33:22;30.10;;;7.40;;
57663;SDS011;43493;53.098;6.064;2024-02-21T01:35:47;25.83;;;7.53;;
57663;SDS011;43493;53.098;6.064;2024-02-21T01:38:15;37.37;;;8.20;;
57663;SDS011;43493;53.098;6.064;2024-02-21T01:40:41;37.90;;;8.60;;
57663;SDS011;43493;53.098;6.064;2024-02-21T01:43:19;39.27;;;8.27;;
57663;SDS011;43493;53.098;6.064;2024-02-21T01:45:46;33.93;;;7.10;;
57663;SDS011;43493;53.098;6.064;2024-02-21T01:48:15;35.63;;;6.63;;
57663;SDS011;43493;53.098;6.064;2024-02-21T01:50:43;36.67;;;8.00;;
57663;SDS011;43493;53.098;6.064;2024-02-21T01:53:15;41.63;;;8.20;;
57663;SDS011;43493;53.098;6.064;2024-02-21T01:55:45;40.77;;;7.97;;
57663;SDS011;43493;53.098;6.064;2024-02-21T01:58:12;38.37;;;7.27;;
57663;SDS011;43493;53.098;6.064;2024-02-21T02:00:40;33.97;;;7.13;;
57663;SDS011;43493;53.098;6.064;2024-02-21T02:03:09;42.30;;;7.77;;
57663;SDS011;43493;53.098;6.064;2024-02-21T02:05:42;36.73;;;7.27;;
57663;SDS011;43493;53.098;6.064;2024-02-21T02:08:12;39.03;;;6.83;;
57663;SDS011;43493;53.098;6.064;2024-02-21T02:10:38;37.07;;;7.30;;
57663;SDS011;43493;53.098;6.064;2024-02-21T02:13:05;44.50;;;7.67;;
57663;SDS011;43493;53.098;6.064;2024-02-21T02:15:37;33.80;;;7.47;;
57663;SDS011;43493;53.098;6.064;2024-02-21T02:18:11;40.60;;;7.20;;
57663;SDS011;43493;53.098;6.064;2024-02-21T02:20:38;38.10;;;8.30;;
57663;SDS011;43493;53.098;6.064;2024-02-21T02:23:08;38.80;;;7.73;;
57663;SDS011;43493;53.098;6.064;2024-02-21T02:25:36;36.57;;;7.70;;
57663;SDS011;43493;53.098;6.064;2024-02-21T02:28:11;38.60;;;6.30;;
57663;SDS011;43493;53.098;6.064;2024-02-21T02:30:38;40.03;;;7.43;;
57663;SDS011;43493;53.098;6.064;2024-02-21T02:33:04;40.80;;;6.93;;
57663;SDS011;43493;53.098;6.064;2024-02-21T02:35:30;34.60;;;6.97;;
57663;SDS011;43493;53.098;6.064;2024-02-21T02:37:56;39.03;;;8.60;;
57663;SDS011;43493;53.098;6.064;2024-02-21T02:40:22;44.23;;;7.67;;
57663;SDS011;43493;53.098;6.064;2024-02-21T02:42:48;39.60;;;8.57;;
57663;SDS011;43493;53.098;6.064;2024-02-21T02:45:18;41.23;;;8.07;;
57663;SDS011;43493;53.098;6.064;2024-02-21T02:47:46;39.57;;;7.47;;
57663;SDS011;43493;53.098;6.064;2024-02-21T02:50:12;45.47;;;7.77;;
57663;SDS011;43493;53.098;6.064;2024-02-21T02:52:38;31.83;;;6.33;;
57663;SDS011;43493;53.098;6.064;2024-02-21T02:55:04;38.73;;;7.23;;
57663;SDS011;43493;53.098;6.064;2024-02-21T02:57:31;40.67;;;7.23;;
57663;SDS011;43493;53.098;6.064;2024-02-21T02:59:57;36.23;;;7.23;;
57663;SDS011;43493;53.098;6.064;2024-02-21T03:02:23;31.97;;;6.57;;
57663;SDS011;43493;53.098;6.064;2024-02-21T03:04:48;32.80;;;6.40;;
57663;SDS011;43493;53.098;6.064;2024-02-21T03:07:14;29.77;;;7.17;;
57663;SDS011;43493;53.098;6.064;2024-02-21T03:09:41;36.37;;;6.73;;
57663;SDS011;43493;53.098;6.064;2024-02-21T03:12:09;39.13;;;7.90;;
57663;SDS011;43493;53.098;6.064;2024-02-21T03:14:35;35.83;;;7.07;;
57663;SDS011;43493;53.098;6.064;2024-02-21T03:17:01;35.33;;;7.00;;
57663;SDS011;43493;53.098;6.064;2024-02-21T03:19:28;40.60;;;8.00;;
57663;SDS011;43493;53.098;6.064;2024-02-21T03:21:54;33.20;;;7.00;;
57663;SDS011;43493;53.098;6.064;2024-02-21T03:24:20;31.47;;;6.93;;
57663;SDS011;43493;53.098;6.064;2024-02-21T03:26:46;35.40;;;6.97;;
57663;SDS011;43493;53.098;6.064;2024-02-21T03:29:15;37.17;;;7.93;;
57663;SDS011;43493;53.098;6.064;2024-02-21T03:31:42;36.87;;;7.30;;
57663;SDS011;43493;53.098;6.064;2024-02-21T03:34:10;41.27;;;8.47;;
57663;SDS011;43493;53.098;6.064;2024-02-21T03:36:36;40.27;;;6.63;;
57663;SDS011;43493;53.098;6.064;2024-02-21T03:39:02;41.13;;;7.10;;
57663;SDS011;43493;53.098;6.064;2024-02-21T03:41:28;42.20;;;7.40;;
57663;SDS011;43493;53.098;6.064;2024-02-21T03:43:54;37.87;;;7.67;;
57663;SDS011;43493;53.098;6.064;2024-02-21T03:46:20;35.53;;;8.37;;
57663;SDS011;43493;53.098;6.064;2024-02-21T03:48:45;40.80;;;7.47;;
57663;SDS011;43493;53.098;6.064;2024-02-21T03:51:11;46.97;;;8.77;;
57663;SDS011;43493;53.098;6.064;2024-02-21T03:53:37;41.73;;;8.00;;
57663;SDS011;43493;53.098;6.064;2024-02-21T03:56:02;45.50;;;8.70;;
57663;SDS011;43493;53.098;6.064;2024-02-21T03:58:32;43.93;;;10.00;;
57663;SDS011;43493;53.098;6.064;2024-02-21T04:01:01;43.57;;;9.23;;
57663;SDS011;43493;53.098;6.064;2024-02-21T04:03:27;44.67;;;8.67;;
57663;SDS011;43493;53.098;6.064;2024-02-21T04:05:53;48.00;;;9.53;;
57663;SDS011;43493;53.098;6.064;2024-02-21T04:08:19;31.97;;;8.27;;
57663;SDS011;43493;53.098;6.064;2024-02-21T04:10:45;44.83;;;8.60;;
57663;SDS011;43493;53.098;6.064;2024-02-21T04:13:10;36.40;;;7.87;;
57663;SDS011;43493;53.098;6.064;2024-02-21T04:15:36;34.37;;;7.23;;
57663;SDS011;43493;53.098;6.064;2024-02-21T04:18:02;38.57;;;7.53;;
57663;SDS011;43493;53.098;6.064;2024-02-21T04:20:28;42.13;;;8.63;;
57663;SDS011;43493;53.098;6.064;2024-02-21T04:22:54;39.97;;;8.17;;
57663;SDS011;43493;53.098;6.064;2024-02-21T04:25:20;38.03;;;7.77;;
57663;SDS011;43493;53.098;6.064;2024-02-21T04:27:46;37.83;;;8.07;;
57663;SDS011;43493;53.098;6.064;2024-02-21T04:30:12;36.67;;;7.33;;
57663;SDS011;43493;53.098;6.064;2024-02-21T04:32:38;41.40;;;7.23;;
57663;SDS011;43493;53.098;6.064;2024-02-21T04:35:04;42.97;;;7.63;;
57663;SDS011;43493;53.098;6.064;2024-02-21T04:37:30;50.40;;;8.00;;
57663;SDS011;43493;53.098;6.064;2024-02-21T04:39:56;41.40;;;9.20;;
57663;SDS011;43493;53.098;6.064;2024-02-21T04:42:22;34.43;;;7.20;;
57663;SDS011;43493;53.098;6.064;2024-02-21T04:44:47;44.57;;;8.90;;
57663;SDS011;43493;53.098;6.064;2024-02-21T04:47:13;37.70;;;7.10;;
57663;SDS011;43493;53.098;6.064;2024-02-21T04:49:39;38.97;;;6.70;;
57663;SDS011;43493;53.098;6.064;2024-02-21T04:52:05;36.77;;;7.27;;
57663;SDS011;43493;53.098;6.064;2024-02-21T04:54:31;45.07;;;8.33;;
57663;SDS011;43493;53.098;6.064;2024-02-21T04:56:57;41.37;;;7.93;;
57663;SDS011;43493;53.098;6.064;2024-02-21T04:59:22;36.47;;;8.73;;
57663;SDS011;43493;53.098;6.064;2024-02-21T05:01:48;34.43;;;6.87;;
57663;SDS011;43493;53.098;6.064;2024-02-21T05:04:14;43.47;;;7.87;;
57663;SDS011;43493;53.098;6.064;2024-02-21T05:06:40;36.20;;;8.30;;
57663;SDS011;43493;53.098;6.064;2024-02-21T05:09:07;34.40;;;7.47;;
57663;SDS011;43493;53.098;6.064;2024-02-21T05:11:34;38.47;;;7.63;;
57663;SDS011;43493;53.098;6.064;2024-02-21T05:14:00;31.50;;;6.70;;
57663;SDS011;43493;53.098;6.064;2024-02-21T05:16:26;41.13;;;7.47;;
57663;SDS011;43493;53.098;6.064;2024-02-21T05:18:52;38.83;;;8.17;;
57663;SDS011;43493;53.098;6.064;2024-02-21T05:21:17;37.80;;;7.93;;
57663;SDS011;43493;53.098;6.064;2024-02-21T05:23:44;41.47;;;7.93;;
57663;SDS011;43493;53.098;6.064;2024-02-21T05:26:10;39.43;;;7.50;;
57663;SDS011;43493;53.098;6.064;2024-02-21T05:28:35;38.17;;;8.13;;
57663;SDS011;43493;53.098;6.064;2024-02-21T05:31:01;48.10;;;8.20;;
57663;SDS011;43493;53.098;6.064;2024-02-21T05:33:27;44.77;;;8.57;;
57663;SDS011;43493;53.098;6.064;2024-02-21T05:35:53;36.63;;;8.47;;
57663;SDS011;43493;53.098;6.064;2024-02-21T05:38:18;41.20;;;9.20;;
57663;SDS011;43493;53.098;6.064;2024-02-21T05:40:44;38.17;;;7.97;;
57663;SDS011;43493;53.098;6.064;2024-02-21T05:43:10;33.47;;;9.03;;
57663;SDS011;43493;53.098;6.064;2024-02-21T05:45:36;34.10;;;8.43;;
57663;SDS011;43493;53.098;6.064;2024-02-21T05:48:03;39.53;;;8.93;;
57663;SDS011;43493;53.098;6.064;2024-02-21T05:50:29;30.83;;;8.07;;
57663;SDS011;43493;53.098;6.064;2024-02-21T05:52:55;36.03;;;9.40;;
57663;SDS011;43493;53.098;6.064;2024-02-21T05:55:21;34.80;;;8.87;;
57663;SDS011;43493;53.098;6.064;2024-02-21T05:57:47;32.83;;;7.50;;
57663;SDS011;43493;53.098;6.064;2024-02-21T06:00:13;30.77;;;10.20;;
57663;SDS011;43493;53.098;6.064;2024-02-21T06:02:40;39.43;;;8.77;;
57663;SDS011;43493;53.098;6.064;2024-02-21T06:05:06;36.87;;;8.63;;
57663;SDS011;43493;53.098;6.064;2024-02-21T06:07:33;35.43;;;9.67;;
57663;SDS011;43493;53.098;6.064;2024-02-21T06:09:59;32.93;;;9.30;;
57663;SDS011;43493;53.098;6.064;2024-02-21T06:12:26;30.07;;;8.17;;
57663;SDS011;43493;53.098;6.064;2024-02-21T06:14:53;44.10;;;10.30;;
57663;SDS011;43493;53.098;6.064;2024-02-21T06:17:19;39.40;;;9.23;;
57663;SDS011;43493;53.098;6.064;2024-02-21T06:19:45;34.90;;;9.33;;
57663;SDS011;43493;53.098;6.064;2024-02-21T06:22:11;39.97;;;9.17;;
57663;SDS011;43493;53.098;6.064;2024-02-21T06:24:37;40.30;;;8.90;;
57663;SDS011;43493;53.098;6.064;2024-02-21T06:27:03;39.13;;;9.97;;
57663;SDS011;43493;53.098;6.064;2024-02-21T06:29:31;36.33;;;9.03;;
57663;SDS011;43493;53.098;6.064;2024-02-21T06:31:57;44.37;;;10.33;;
57663;SDS011;43493;53.098;6.064;2024-02-21T06:34:23;40.77;;;9.83;;
57663;SDS011;43493;53.098;6.064;2024-02-21T06:36:49;52.67;;;13.73;;
57663;SDS011;43493;53.098;6.064;2024-02-21T06:39:15;45.53;;;12.27;;
57663;SDS011;43493;53.098;6.064;2024-02-21T06:41:41;52.27;;;15.43;;
57663;SDS011;43493;53.098;6.064;2024-02-21T06:44:07;57.23;;;16.30;;
57663;SDS011;43493;53.098;6.064;2024-02-21T06:46:33;59.77;;;17.10;;
57663;SDS011;43493;53.098;6.064;2024-02-21T06:48:59;65.80;;;17.33;;
57663;SDS011;43493;53.098;6.064;2024-02-21T06:51:26;65.27;;;15.83;;
57663;SDS011;43493;53.098;6.064;2024-02-21T06:53:52;57.40;;;15.47;;
57663;SDS011;43493;53.098;6.064;2024-02-21T06:56:18;72.60;;;17.87;;
57663;SDS011;43493;53.098;6.064;2024-02-21T06:58:44;76.07;;;16.90;;
57663;SDS011;43493;53.098;6.064;2024-02-21T07:01:10;59.73;;;14.43;;
57663;SDS011;43493;53.098;6.064;2024-02-21T07:03:36;66.07;;;15.47;;
57663;SDS011;43493;53.098;6.064;2024-02-21T07:06:02;63.33;;;16.27;;
57663;SDS011;43493;53.098;6.064;2024-02-21T07:08:28;72.87;;;17.67;;
57663;SDS011;43493;53.098;6.064;2024-02-21T07:10:54;63.27;;;15.83;;
57663;SDS011;43493;53.098;6.064;2024-02-21T07:13:20;55.57;;;17.63;;
57663;SDS011;43493;53.098;6.064;2024-02-21T07:15:46;55.10;;;17.90;;
57663;SDS011;43493;53.098;6.064;2024-02-21T07:18:13;48.00;;;17.27;;
57663;SDS011;43493;53.098;6.064;2024-02-21T07:20:38;58.30;;;18.80;;
57663;SDS011;43493;53.098;6.064;2024-02-21T07:23:06;59.40;;;18.47;;
57663;SDS011;43493;53.098;6.064;2024-02-21T07:25:33;73.07;;;18.63;;
57663;SDS011;43493;53.098;6.064;2024-02-21T07:27:59;55.30;;;16.57;;
57663;SDS011;43493;53.098;6.064;2024-02-21T07:30:25;56.23;;;14.33;;
57663;SDS011;43493;53.098;6.064;2024-02-21T07:32:51;55.43;;;13.60;;
57663;SDS011;43493;53.098;6.064;2024-02-21T07:35:19;54.70;;;13.00;;
57663;SDS011;43493;53.098;6.064;2024-02-21T07:37:45;44.17;;;11.87;;
57663;SDS011;43493;53.098;6.064;2024-02-21T07:40:14;44.07;;;10.20;;
57663;SDS011;43493;53.098;6.064;2024-02-21T07:42:41;43.20;;;10.90;;
57663;SDS011;43493;53.098;6.064;2024-02-21T07:45:08;46.03;;;9.80;;
57663;SDS011;43493;53.098;6.064;2024-02-21T07:47:35;42.47;;;9.93;;
57663;SDS011;43493;53.098;6.064;2024-02-21T07:50:01;50.03;;;8.77;;
57663;SDS011;43493;53.098;6.064;2024-02-21T07:52:28;38.07;;;9.00;;
57663;SDS011;43493;53.098;6.064;2024-02-21T07:54:53;28.53;;;8.20;;
57663;SDS011;43493;53.098;6.064;2024-02-21T07:57:19;32.30;;;8.77;;
57663;SDS011;43493;53.098;6.064;2024-02-21T07:59:45;35.37;;;8.63;;
57663;SDS011;43493;53.098;6.064;2024-02-21T08:02:13;34.57;;;8.63;;
57663;SDS011;43493;53.098;6.064;2024-02-21T08:04:39;27.37;;;7.20;;
57663;SDS011;43493;53.098;6.064;2024-02-21T08:07:05;25.03;;;7.53;;
57663;SDS011;43493;53.098;6.064;2024-02-21T08:09:30;33.87;;;8.17;;
57663;SDS011;43493;53.098;6.064;2024-02-21T08:11:56;29.63;;;7.93;;
57663;SDS011;43493;53.098;6.064;2024-02-21T08:14:22;26.70;;;8.63;;
57663;SDS011;43493;53.098;6.064;2024-02-21T08:16:50;27.53;;;9.40;;
57663;SDS011;43493;53.098;6.064;2024-02-21T08:19:16;34.90;;;9.07;;
57663;SDS011;43493;53.098;6.064;2024-02-21T08:21:43;32.33;;;9.97;;
57663;SDS011;43493;53.098;6.064;2024-02-21T08:24:08;31.87;;;9.77;;
57663;SDS011;43493;53.098;6.064;2024-02-21T08:26:35;30.70;;;11.63;;
57663;SDS011;43493;53.098;6.064;2024-02-21T08:29:10;29.63;;;12.30;;
57663;SDS011;43493;53.098;6.064;2024-02-21T08:31:37;33.53;;;13.27;;
57663;SDS011;43493;53.098;6.064;2024-02-21T08:34:02;33.27;;;14.03;;
57663;SDS011;43493;53.098;6.064;2024-02-21T08:36:32;39.80;;;14.87;;
57663;SDS011;43493;53.098;6.064;2024-02-21T08:38:59;41.73;;;16.30;;
57663;SDS011;43493;53.098;6.064;2024-02-21T08:41:25;39.27;;;17.33;;
57663;SDS011;43493;53.098;6.064;2024-02-21T08:43:51;40.63;;;18.97;;
57663;SDS011;43493;53.098;6.064;2024-02-21T08:46:19;37.83;;;20.23;;
57663;SDS011;43493;53.098;6.064;2024-02-21T08:48:45;42.03;;;21.43;;
57663;SDS011;43493;53.098;6.064;2024-02-21T08:51:12;39.70;;;20.23;;
57663;SDS011;43493;53.098;6.064;2024-02-21T08:53:39;40.33;;;21.50;;
57663;SDS011;43493;53.098;6.064;2024-02-21T08:56:05;33.90;;;21.50;;
57663;SDS011;43493;53.098;6.064;2024-02-21T08:58:32;35.70;;;23.57;;
57663;SDS011;43493;53.098;6.064;2024-02-21T09:00:58;33.70;;;23.77;;
57663;SDS011;43493;53.098;6.064;2024-02-21T09:03:24;42.00;;;25.27;;
57663;SDS011;43493;53.098;6.064;2024-02-21T09:05:50;37.93;;;24.77;;
57663;SDS011;43493;53.098;6.064;2024-02-21T09:08:16;38.97;;;23.80;;
57663;SDS011;43493;53.098;6.064;2024-02-21T09:10:41;45.00;;;24.40;;
57663;SDS011;43493;53.098;6.064;2024-02-21T09:13:07;39.43;;;24.67;;
57663;SDS011;43493;53.098;6.064;2024-02-21T09:15:34;40.17;;;24.80;;
57663;SDS011;43493;53.098;6.064;2024-02-21T09:17:59;40.90;;;24.00;;
57663;SDS011;43493;53.098;6.064;2024-02-21T09:20:25;35.00;;;24.47;;
57663;SDS011;43493;53.098;6.064;2024-02-21T09:22:51;36.63;;;24.77;;
57663;SDS011;43493;53.098;6.064;2024-02-21T09:25:18;30.50;;;25.27;;
57663;SDS011;43493;53.098;6.064;2024-02-21T09:27:44;33.80;;;23.83;;
57663;SDS011;43493;53.098;6.064;2024-02-21T09:30:10;36.10;;;21.97;;
57663;SDS011;43493;53.098;6.064;2024-02-21T09:32:36;34.80;;;23.03;;
57663;SDS011;43493;53.098;6.064;2024-02-21T09:35:02;32.27;;;23.30;;
57663;SDS011;43493;53.098;6.064;2024-02-21T09:37:28;36.00;;;22.33;;
57663;SDS011;43493;53.098;6.064;2024-02-21T09:39:54;34.93;;;24.43;;
57663;SDS011;43493;53.098;6.064;2024-02-21T09:42:20;32.03;;;21.77;;
57663;SDS011;43493;53.098;6.064;2024-02-21T09:44:49;32.73;;;22.53;;
57663;SDS011;43493;53.098;6.064;2024-02-21T09:49:47;28.47;;;21.37;;
57663;SDS011;43493;53.098;6.064;2024-02-21T09:52:13;31.73;;;20.43;;
57663;SDS011;43493;53.098;6.064;2024-02-21T09:54:41;28.17;;;20.87;;
57663;SDS011;43493;53.098;6.064;2024-02-21T09:57:09;31.63;;;20.07;;
57663;SDS011;43493;53.098;6.064;2024-02-21T09:59:35;28.27;;;20.17;;
57663;SDS011;43493;53.098;6.064;2024-02-21T10:02:02;25.63;;;20.37;;
57663;SDS011;43493;53.098;6.064;2024-02-21T10:04:28;28.63;;;19.17;;
57663;SDS011;43493;53.098;6.064;2024-02-21T10:06:54;30.90;;;19.97;;
57663;SDS011;43493;53.098;6.064;2024-02-21T10:09:24;27.70;;;18.47;;
57663;SDS011;43493;53.098;6.064;2024-02-21T10:11:53;25.73;;;18.57;;
57663;SDS011;43493;53.098;6.064;2024-02-21T10:14:19;27.20;;;18.90;;
57663;SDS011;43493;53.098;6.064;2024-02-21T10:16:55;27.63;;;18.43;;
57663;SDS011;43493;53.098;6.064;2024-02-21T10:19:25;27.43;;;19.00;;
57663;SDS011;43493;53.098;6.064;2024-02-21T10:24:43;24.93;;;17.90;;
57663;SDS011;43493;53.098;6.064;2024-02-21T10:27:09;29.80;;;18.40;;
57663;SDS011;43493;53.098;6.064;2024-02-21T10:29:38;30.53;;;18.33;;
57663;SDS011;43493;53.098;6.064;2024-02-21T10:32:07;29.53;;;18.73;;
57663;SDS011;43493;53.098;6.064;2024-02-21T10:34:34;24.60;;;17.97;;
57663;SDS011;43493;53.098;6.064;2024-02-21T10:37:04;27.37;;;18.37;;
57663;SDS011;43493;53.098;6.064;2024-02-21T10:39:35;26.60;;;17.00;;
57663;SDS011;43493;53.098;6.064;2024-02-21T10:42:05;21.80;;;17.23;;
57663;SDS011;43493;53.098;6.064;2024-02-21T10:44:32;28.10;;;18.17;;
57663;SDS011;43493;53.098;6.064;2024-02-21T10:46:58;24.90;;;17.87;;
57663;SDS011;43493;53.098;6.064;2024-02-21T10:49:27;24.30;;;18.77;;
57663;SDS011;43493;53.098;6.064;2024-02-21T10:54:52;28.03;;;18.77;;
57663;SDS011;43493;53.098;6.064;2024-02-21T10:57:29;27.40;;;17.83;;
57663;SDS011;43493;53.098;6.064;2024-02-21T10:59:58;26.70;;;19.43;;
57663;SDS011;43493;53.098;6.064;2024-02-21T11:02:24;24.87;;;17.67;;
57663;SDS011;43493;53.098;6.064;2024-02-21T11:04:53;28.37;;;19.10;;
57663;SDS011;43493;53.098;6.064;2024-02-21T11:07:20;28.20;;;18.97;;
57663;SDS011;43493;53.098;6.064;2024-02-21T11:09:52;28.50;;;19.50;;
57663;SDS011;43493;53.098;6.064;2024-02-21T11:12:23;29.00;;;18.97;;
57663;SDS011;43493;53.098;6.064;2024-02-21T11:14:49;26.57;;;19.13;;
57663;SDS011;43493;53.098;6.064;2024-02-21T11:17:18;29.07;;;19.03;;
57663;SDS011;43493;53.098;6.064;2024-02-21T11:19:46;24.77;;;18.17;;
57663;SDS011;43493;53.098;6.064;2024-02-21T11:22:16;28.23;;;17.97;;
57663;SDS011;43493;53.098;6.064;2024-02-21T11:24:42;28.60;;;18.13;;
57663;SDS011;43493;53.098;6.064;2024-02-21T11:27:08;21.50;;;16.97;;
57663;SDS011;43493;53.098;6.064;2024-02-21T11:29:48;23.23;;;18.57;;
57663;SDS011;43493;53.098;6.064;2024-02-21T11:32:19;24.90;;;18.60;;
57663;SDS011;43493;53.098;6.064;2024-02-21T11:34:58;23.37;;;18.07;;
57663;SDS011;43493;53.098;6.064;2024-02-21T11:37:32;26.83;;;19.25;;
57663;SDS011;43493;53.098;6.064;2024-02-21T11:39:58;24.27;;;18.30;;
57663;SDS011;43493;53.098;6.064;2024-02-21T11:42:25;21.97;;;17.17;;
57663;SDS011;43493;53.098;6.064;2024-02-21T11:44:52;26.77;;;16.63;;
57663;SDS011;43493;53.098;6.064;2024-02-21T11:47:18;29.17;;;18.33;;
57663;SDS011;43493;53.098;6.064;2024-02-21T11:49:45;23.90;;;17.50;;
57663;SDS011;43493;53.098;6.064;2024-02-21T11:52:12;25.50;;;18.93;;
57663;SDS011;43493;53.098;6.064;2024-02-21T11:54:40;26.73;;;16.97;;
57663;SDS011;43493;53.098;6.064;2024-02-21T11:57:06;23.60;;;16.80;;
57663;SDS011;43493;53.098;6.064;2024-02-21T11:59:32;27.37;;;17.73;;
57663;SDS011;43493;53.098;6.064;2024-02-21T12:01:59;24.93;;;17.80;;
57663;SDS011;43493;53.098;6.064;2024-02-21T12:04:26;24.67;;;17.67;;
57663;SDS011;43493;53.098;6.064;2024-02-21T12:06:54;22.77;;;15.10;;
57663;SDS011;43493;53.098;6.064;2024-02-21T12:09:22;21.63;;;15.67;;
57663;SDS011;43493;53.098;6.064;2024-02-21T12:11:56;21.43;;;14.33;;
57663;SDS011;43493;53.098;6.064;2024-02-21T12:14:27;21.83;;;14.80;;
57663;SDS011;43493;53.098;6.064;2024-02-21T12:16:54;18.97;;;14.93;;
57663;SDS011;43493;53.098;6.064;2024-02-21T12:19:20;23.10;;;15.00;;
57663;SDS011;43493;53.098;6.064;2024-02-21T12:21:47;22.23;;;15.07;;
57663;SDS011;43493;53.098;6.064;2024-02-21T12:26:41;22.77;;;14.67;;
57663;SDS011;43493;53.098;6.064;2024-02-21T12:29:07;17.93;;;12.97;;
57663;SDS011;43493;53.098;6.064;2024-02-21T12:31:39;19.13;;;11.27;;
57663;SDS011;43493;53.098;6.064;2024-02-21T12:34:05;19.33;;;11.73;;
57663;SDS011;43493;53.098;6.064;2024-02-21T12:36:31;16.57;;;11.20;;
57663;SDS011;43493;53.098;6.064;2024-02-21T12:38:58;16.47;;;10.97;;
57663;SDS011;43493;53.098;6.064;2024-02-21T12:41:25;12.80;;;9.93;;
57663;SDS011;43493;53.098;6.064;2024-02-21T12:43:52;17.20;;;10.47;;
57663;SDS011;43493;53.098;6.064;2024-02-21T12:46:18;13.73;;;9.63;;
57663;SDS011;43493;53.098;6.064;2024-02-21T12:48:44;13.80;;;8.80;;
57663;SDS011;43493;53.098;6.064;2024-02-21T12:51:09;15.43;;;9.87;;
57663;SDS011;43493;53.098;6.064;2024-02-21T12:53:35;14.43;;;8.83;;
57663;SDS011;43493;53.098;6.064;2024-02-21T12:56:01;15.00;;;9.43;;
57663;SDS011;43493;53.098;6.064;2024-02-21T12:58:27;18.27;;;9.77;;
57663;SDS011;43493;53.098;6.064;2024-02-21T13:00:56;15.43;;;10.30;;
57663;SDS011;43493;53.098;6.064;2024-02-21T13:03:22;19.23;;;11.10;;
57663;SDS011;43493;53.098;6.064;2024-02-21T13:05:48;19.43;;;12.20;;
57663;SDS011;43493;53.098;6.064;2024-02-21T13:08:16;18.80;;;10.50;;
57663;SDS011;43493;53.098;6.064;2024-02-21T13:10:42;15.63;;;11.27;;
57663;SDS011;43493;53.098;6.064;2024-02-21T13:13:08;14.07;;;9.67;;
57663;SDS011;43493;53.098;6.064;2024-02-21T13:15:34;12.93;;;7.87;;
57663;SDS011;43493;53.098;6.064;2024-02-21T13:18:00;15.70;;;9.30;;
57663;SDS011;43493;53.098;6.064;2024-02-21T13:20:25;15.50;;;9.40;;
57663;SDS011;43493;53.098;6.064;2024-02-21T13:22:53;11.33;;;8.50;;
57663;SDS011;43493;53.098;6.064;2024-02-21T13:25:19;11.07;;;7.60;;
57663;SDS011;43493;53.098;6.064;2024-02-21T13:27:46;13.27;;;8.33;;
57663;SDS011;43493;53.098;6.064;2024-02-21T13:30:13;11.67;;;7.60;;
57663;SDS011;43493;53.098;6.064;2024-02-21T13:32:41;10.83;;;7.50;;
57663;SDS011;43493;53.098;6.064;2024-02-21T13:35:08;10.67;;;7.17;;
57663;SDS011;43493;53.098;6.064;2024-02-21T13:37:34;11.33;;;6.70;;
57663;SDS011;43493;53.098;6.064;2024-02-21T13:40:00;10.77;;;6.60;;
57663;SDS011;43493;53.098;6.064;2024-02-21T13:42:26;11.47;;;7.00;;
57663;SDS011;43493;53.098;6.064;2024-02-21T13:44:53;12.53;;;7.37;;
57663;SDS011;43493;53.098;6.064;2024-02-21T13:47:18;9.97;;;7.10;;
57663;SDS011;43493;53.098;6.064;2024-02-21T13:49:46;9.70;;;7.80;;
57663;SDS011;43493;53.098;6.064;2024-02-21T13:52:12;9.20;;;7.13;;
57663;SDS011;43493;53.098;6.064;2024-02-21T13:54:39;11.03;;;7.73;;
57663;SDS011;43493;53.098;6.064;2024-02-21T13:57:05;12.17;;;7.00;;
57663;SDS011;43493;53.098;6.064;2024-02-21T13:59:31;11.23;;;7.53;;
57663;SDS011;43493;53.098;6.064;2024-02-21T14:01:58;12.07;;;7.23;;
57663;SDS011;43493;53.098;6.064;2024-02-21T14:04:24;12.07;;;7.83;;
57663;SDS011;43493;53.098;6.064;2024-02-21T14:06:50;13.93;;;8.97;;
57663;SDS011;43493;53.098;6.064;2024-02-21T14:09:17;12.03;;;8.97;;
57663;SDS011;43493;53.098;6.064;2024-02-21T14:11:43;11.20;;;8.60;;
57663;SDS011;43493;53.098;6.064;2024-02-21T14:14:10;11.77;;;8.27;;
57663;SDS011;43493;53.098;6.064;2024-02-21T14:16:36;15.17;;;9.20;;
57663;SDS011;43493;53.098;6.064;2024-02-21T14:19:02;13.60;;;8.67;;
57663;SDS011;43493;53.098;6.064;2024-02-21T14:21:27;15.20;;;9.37;;
57663;SDS011;43493;53.098;6.064;2024-02-21T14:23:54;17.70;;;9.20;;
57663;SDS011;43493;53.098;6.064;2024-02-21T14:26:21;12.10;;;8.43;;
57663;SDS011;43493;53.098;6.064;2024-02-21T14:28:47;13.07;;;8.43;;
57663;SDS011;43493;53.098;6.064;2024-02-21T14:31:13;13.30;;;8.57;;
57663;SDS011;43493;53.098;6.064;2024-02-21T14:33:38;14.47;;;9.37;;
57663;SDS011;43493;53.098;6.064;2024-02-21T14:36:05;13.07;;;8.83;;